Time;durP1;ratioP1;P1;durP2;ratioP2;P2;SDS_P1;SDS_P2;PMS_P1;PMS_P2;Temp;Humidity;BMP_temperature;BMP_pressure;BME280_temperature;BME280_humidity;BME280_pressure;Samples;Min_cycle;Max_cycle;Signal;HPM_P1;HPM_P2
2023/03/01 00:01:06;;;;;;;14.10;9.00;;;-1.40;99.90;;;;;;5037546;28;20177;-81
2023/03/01 00:03:33;;;;;;;13.47;8.73;;;-1.30;99.90;;;;;;5037492;28;20162;-81
2023/03/01 00:05:59;;;;;;;15.77;8.73;;;-1.30;99.90;;;;;;5055619;28;20222;-81
2023/03/01 00:08:25;;;;;;;13.97;9.30;;;-1.20;99.90;;;;;;5055438;28;20707;-81
2023/03/01 00:11:07;;;;;;;16.37;9.13;;;-1.30;99.90;;;;;;5037600;28;20197;-81
2023/03/01 00:13:34;;;;;;;14.17;8.87;;;-1.30;99.90;;;;;;5037594;28;20162;-81
2023/03/01 00:16:06;;;;;;;15.07;9.47;;;-1.40;99.90;;;;;;5036976;28;20201;-80
2023/03/01 00:18:32;;;;;;;14.90;8.93;;;-1.30;99.90;;;;;;5037462;28;20161;-81
2023/03/01 00:20:59;;;;;;;15.37;9.43;;;-1.20;99.90;;;;;;5054897;28;20174;-81
2023/03/01 00:23:25;;;;;;;15.23;9.07;;;-1.20;99.90;;;;;;5054945;28;20178;-81
2023/03/01 00:25:51;;;;;;;13.67;8.37;;;-1.20;99.90;;;;;;5055140;28;20201;-81
2023/03/01 00:28:17;;;;;;;12.53;8.57;;;-1.30;99.90;;;;;;5055025;28;20186;-81
2023/03/01 00:30:43;;;;;;;11.83;8.40;;;-1.40;99.90;;;;;;5054696;28;20317;-81
2023/03/01 00:33:08;;;;;;;15.07;8.90;;;-1.50;99.90;;;;;;5054966;28;20250;-81
2023/03/01 00:35:34;;;;;;;15.00;9.10;;;-1.50;99.90;;;;;;5036877;28;20194;-81
2023/03/01 00:38:00;;;;;;;13.30;8.40;;;-1.50;99.90;;;;;;5055014;28;20188;-82
2023/03/01 00:40:28;;;;;;;12.40;7.93;;;-1.60;99.90;;;;;;5037059;28;20174;-81
2023/03/01 00:42:54;;;;;;;12.87;8.37;;;-1.60;99.90;;;;;;5036941;28;20170;-80
2023/03/01 00:45:20;;;;;;;14.60;9.07;;;-1.50;99.90;;;;;;5036741;28;20209;-81
2023/03/01 00:47:47;;;;;;;16.90;9.43;;;-1.50;99.90;;;;;;5053603;28;20226;-81
2023/03/01 00:50:12;;;;;;;14.07;8.43;;;-1.50;99.90;;;;;;5036626;28;20560;-81
2023/03/01 00:52:38;;;;;;;13.63;8.50;;;-1.50;99.90;;;;;;5036861;28;20185;-81
2023/03/01 00:55:04;;;;;;;16.03;9.47;;;-1.50;99.90;;;;;;5037738;28;20193;-81
2023/03/01 00:57:30;;;;;;;13.87;9.30;;;-1.40;99.90;;;;;;5044004;28;20192;-81
2023/03/01 00:59:56;;;;;;;14.10;8.97;;;-1.40;99.90;;;;;;5036357;28;20689;-81
2023/03/01 01:02:22;;;;;;;13.87;8.63;;;-1.50;99.90;;;;;;5036349;28;20628;-81
2023/03/01 01:04:47;;;;;;;15.43;8.30;;;-1.50;99.90;;;;;;5054246;28;20194;-80
2023/03/01 01:07:14;;;;;;;13.70;9.23;;;-1.50;99.90;;;;;;5036350;28;20181;-81
2023/03/01 01:09:40;;;;;;;14.60;8.70;;;-1.50;99.90;;;;;;5053843;28;20174;-81
2023/03/01 01:12:06;;;;;;;15.50;9.63;;;-1.50;99.90;;;;;;5036156;28;20202;-81
2023/03/01 01:14:32;;;;;;;14.97;8.73;;;-1.40;99.90;;;;;;5036073;28;20281;-80
2023/03/01 01:16:57;;;;;;;16.13;9.90;;;-1.40;99.90;;;;;;5054265;28;20316;-81
2023/03/01 01:19:24;;;;;;;13.80;8.97;;;-1.40;99.90;;;;;;5054059;28;20210;-81
2023/03/01 01:21:49;;;;;;;17.87;9.87;;;-1.40;99.90;;;;;;5053754;28;20178;-81
2023/03/01 01:24:16;;;;;;;14.77;9.27;;;-1.40;99.90;;;;;;5052855;28;20209;-81
2023/03/01 01:26:42;;;;;;;13.20;8.53;;;-1.30;99.90;;;;;;5035804;28;20201;-81
2023/03/01 01:29:08;;;;;;;12.77;8.57;;;-1.30;99.90;;;;;;5035953;28;20661;-81
2023/03/01 01:31:35;;;;;;;15.43;9.93;;;-1.30;99.90;;;;;;5035489;28;20201;-81
2023/03/01 01:34:04;;;;;;;15.03;8.27;;;-1.40;99.90;;;;;;5053904;28;20173;-81
2023/03/01 01:36:30;;;;;;;13.13;8.67;;;-1.40;99.90;;;;;;5036107;28;20211;-81
2023/03/01 01:38:56;;;;;;;13.27;8.67;;;-1.40;99.90;;;;;;5036009;28;20181;-81
2023/03/01 01:41:22;;;;;;;15.20;9.27;;;-1.50;99.90;;;;;;5053537;28;20272;-81
2023/03/01 01:44:09;;;;;;;14.47;8.60;;;-1.40;99.90;;;;;;5053353;28;20178;-81
2023/03/01 01:46:38;;;;;;;15.40;9.40;;;-1.40;99.90;;;;;;5035928;28;20178;-81
2023/03/01 01:49:15;;;;;;;13.63;9.37;;;-1.30;99.90;;;;;;5035667;28;20290;-81
2023/03/01 01:51:43;;;;;;;15.73;9.30;;;-1.30;99.90;;;;;;5053567;28;20296;-81
2023/03/01 01:54:13;;;;;;;14.87;9.40;;;-1.30;99.90;;;;;;5053560;28;20198;-81
2023/03/01 01:56:44;;;;;;;14.60;9.40;;;-1.30;99.90;;;;;;5053692;28;20170;-81
2023/03/01 01:59:10;;;;;;;16.50;10.10;;;-1.40;99.90;;;;;;5053552;28;20191;-81
2023/03/01 02:01:36;;;;;;;14.87;9.17;;;-1.40;99.90;;;;;;5035365;28;20205;-80
2023/03/01 02:04:02;;;;;;;14.40;8.90;;;-1.30;99.90;;;;;;5035392;28;20213;-81
2023/03/01 02:06:41;;;;;;;15.93;9.03;;;-1.30;99.90;;;;;;5035740;28;20567;-81
2023/03/01 02:09:13;;;;;;;16.00;9.37;;;-1.30;99.90;;;;;;5053373;28;20219;-81
2023/03/01 02:11:39;;;;;;;16.73;9.23;;;-1.40;99.90;;;;;;5035179;28;20296;-81
2023/03/01 02:14:05;;;;;;;16.63;8.87;;;-1.30;99.90;;;;;;5035100;28;20262;-81
2023/03/01 02:16:31;;;;;;;15.20;9.47;;;-1.30;99.90;;;;;;5035686;28;20231;-81
2023/03/01 02:18:58;;;;;;;16.03;9.53;;;-1.30;99.90;;;;;;5051934;28;20175;-81
2023/03/01 02:21:29;;;;;;;13.93;9.20;;;-1.40;99.90;;;;;;5035478;28;20173;-81
2023/03/01 02:23:55;;;;;;;15.77;9.73;;;-1.40;99.90;;;;;;5053298;28;20178;-81
2023/03/01 02:26:40;;;;;;;13.87;9.17;;;-1.40;99.90;;;;;;5053304;28;20262;-80
2023/03/01 02:29:06;;;;;;;14.57;9.47;;;-1.50;99.90;;;;;;5035020;28;20169;-81
2023/03/01 02:31:44;;;;;;;15.17;9.50;;;-1.50;99.90;;;;;;5052865;28;20256;-81
2023/03/01 02:34:14;;;;;;;14.13;9.67;;;-1.50;99.90;;;;;;5035572;28;20204;-81
2023/03/01 02:36:50;;;;;;;15.43;9.57;;;-1.40;99.90;;;;;;5053018;28;20375;-81
2023/03/01 02:39:26;;;;;;;13.90;9.90;;;-1.50;99.90;;;;;;5035207;28;20695;-81
2023/03/01 02:41:53;;;;;;;15.60;9.37;;;-1.50;99.90;;;;;;5035049;28;20220;-81
2023/03/01 02:44:20;;;;;;;14.67;9.37;;;-1.50;99.90;;;;;;5052596;28;20202;-81
2023/03/01 02:46:51;;;;;;;14.43;9.20;;;-1.50;99.90;;;;;;5137336;22;20226;-82
2023/03/01 02:49:26;;;;;;;15.30;9.47;;;-1.50;99.90;;;;;;5070980;28;20237;-82
2023/03/01 02:52:04;;;;;;;14.93;9.13;;;-1.50;99.90;;;;;;5071302;28;20205;-83
2023/03/01 02:54:39;;;;;;;14.47;9.10;;;-1.50;99.90;;;;;;5091385;28;20244;-83
2023/03/01 02:57:05;;;;;;;15.83;9.33;;;-1.50;99.90;;;;;;5084284;28;20195;-80
2023/03/01 02:59:38;;;;;;;13.83;8.80;;;-1.50;99.90;;;;;;5073038;28;20185;-81
2023/03/01 03:02:05;;;;;;;15.97;8.53;;;-1.50;99.90;;;;;;5073123;28;20267;-81
2023/03/01 03:04:30;;;;;;;16.67;9.47;;;-1.40;99.90;;;;;;5071639;28;20173;-80
2023/03/01 03:06:56;;;;;;;14.07;9.07;;;-1.50;99.90;;;;;;5071226;28;20242;-80
2023/03/01 03:09:21;;;;;;;13.97;8.93;;;-1.50;99.90;;;;;;5071321;28;20660;-81
2023/03/01 03:11:47;;;;;;;13.97;9.03;;;-1.60;99.90;;;;;;5074859;28;20194;-80
2023/03/01 03:14:15;;;;;;;17.00;9.37;;;-1.60;99.90;;;;;;5075638;28;20175;-80
2023/03/01 03:16:59;;;;;;;15.33;9.80;;;-1.70;99.90;;;;;;5075189;28;20191;-80
2023/03/01 03:19:24;;;;;;;14.60;9.37;;;-1.90;99.90;;;;;;5075299;28;20158;-80
2023/03/01 03:21:50;;;;;;;14.70;9.33;;;-1.90;99.90;;;;;;5076716;28;20655;-80
2023/03/01 03:24:15;;;;;;;14.57;9.33;;;-2.00;99.90;;;;;;5075641;28;20178;-80
2023/03/01 03:26:41;;;;;;;14.57;9.27;;;-2.00;99.90;;;;;;5075298;28;20199;-81
2023/03/01 03:29:07;;;;;;;13.87;8.43;;;-2.00;99.90;;;;;;5075248;28;20170;-80
2023/03/01 03:31:33;;;;;;;16.10;9.23;;;-1.90;99.90;;;;;;5075016;28;20213;-80
2023/03/01 03:33:59;;;;;;;14.87;8.80;;;-1.80;99.90;;;;;;5075383;28;20180;-80
2023/03/01 03:36:25;;;;;;;14.13;8.80;;;-1.90;99.90;;;;;;5076601;28;20193;-80
2023/03/01 03:38:51;;;;;;;14.43;8.87;;;-1.90;99.90;;;;;;5075396;28;20188;-80
2023/03/01 03:41:17;;;;;;;12.67;8.43;;;-1.80;99.90;;;;;;5076605;28;20185;-80
2023/03/01 03:43:43;;;;;;;15.13;8.90;;;-1.70;99.90;;;;;;5076784;28;20192;-81
2023/03/01 03:46:10;;;;;;;14.10;8.93;;;-1.60;99.90;;;;;;5076117;28;20239;-80
2023/03/01 03:48:39;;;;;;;15.60;9.67;;;-1.50;99.90;;;;;;5077291;28;20212;-81
2023/03/01 03:51:07;;;;;;;14.63;9.13;;;-1.50;99.90;;;;;;5076919;28;20221;-81
2023/03/01 03:53:33;;;;;;;13.80;8.30;;;-1.40;99.90;;;;;;5076583;28;20192;-81
2023/03/01 03:55:59;;;;;;;14.00;8.93;;;-1.40;99.90;;;;;;5077228;28;20618;-81
2023/03/01 03:58:25;;;;;;;13.60;8.70;;;-1.30;99.90;;;;;;5076756;28;20174;-81
2023/03/01 04:00:57;;;;;;;14.23;9.13;;;-1.30;99.90;;;;;;5077086;28;20644;-81
2023/03/01 04:03:25;;;;;;;12.50;9.00;;;-1.30;99.90;;;;;;5077116;28;20183;-81
2023/03/01 04:05:51;;;;;;;13.17;8.47;;;-1.30;99.90;;;;;;5060133;28;20202;-83
2023/03/01 04:08:22;;;;;;;13.47;8.67;;;-1.30;99.90;;;;;;5059312;28;20179;-80
2023/03/01 04:10:50;;;;;;;14.77;8.97;;;-1.30;99.90;;;;;;5078112;28;20215;-80
2023/03/01 04:13:19;;;;;;;15.80;8.70;;;-1.30;99.90;;;;;;5077722;28;20186;-81
2023/03/01 04:15:46;;;;;;;14.07;8.97;;;-1.30;99.90;;;;;;5059563;28;20193;-83
2023/03/01 04:18:14;;;;;;;12.43;8.33;;;-1.20;99.90;;;;;;5064840;28;20173;-81
2023/03/01 04:20:39;;;;;;;13.53;8.97;;;-1.20;99.90;;;;;;5059917;28;20201;-81
2023/03/01 04:23:10;;;;;;;15.47;8.23;;;-1.20;99.90;;;;;;5078530;28;20174;-81
2023/03/01 04:25:41;;;;;;;15.70;9.07;;;-1.10;99.90;;;;;;5059767;28;20203;-80
2023/03/01 04:28:08;;;;;;;18.93;9.67;;;-1.20;99.90;;;;;;5079619;28;20177;-81
2023/03/01 04:30:35;;;;;;;14.60;8.93;;;-1.10;99.90;;;;;;5079607;28;20173;-81
2023/03/01 04:33:09;;;;;;;14.63;9.10;;;-1.20;99.90;;;;;;5079368;28;20176;-80
2023/03/01 04:35:36;;;;;;;14.23;9.27;;;-1.20;99.90;;;;;;5079659;28;20203;-79
2023/03/01 04:38:03;;;;;;;15.07;9.27;;;-1.30;99.90;;;;;;5069403;28;20184;-83
2023/03/01 04:40:29;;;;;;;18.00;9.03;;;-1.40;99.90;;;;;;5061713;28;20170;-80
2023/03/01 04:42:54;;;;;;;16.73;9.17;;;-1.40;99.90;;;;;;5080213;28;20177;-80
2023/03/01 04:45:21;;;;;;;13.33;8.73;;;-1.40;99.90;;;;;;5061482;28;20308;-83
2023/03/01 04:47:47;;;;;;;14.13;9.27;;;-1.40;99.90;;;;;;5080730;28;20595;-81
2023/03/01 04:50:15;;;;;;;13.73;8.67;;;-1.40;99.90;;;;;;5061954;28;20548;-80
2023/03/01 04:52:40;;;;;;;16.93;9.00;;;-1.40;99.90;;;;;;5062109;28;20212;-81
2023/03/01 04:55:07;;;;;;;13.63;8.57;;;-1.40;99.90;;;;;;5062520;28;20208;-80
2023/03/01 04:57:33;;;;;;;14.17;9.27;;;-1.40;99.90;;;;;;5082319;28;20173;-80
2023/03/01 04:59:58;;;;;;;16.03;9.47;;;-1.40;99.90;;;;;;5062669;28;20177;-82
2023/03/01 05:02:24;;;;;;;14.87;8.90;;;-1.40;99.90;;;;;;5081499;28;20184;-81
2023/03/01 05:04:50;;;;;;;14.73;9.00;;;-1.40;99.90;;;;;;5063170;28;20177;-81
2023/03/01 05:07:19;;;;;;;16.00;9.50;;;-1.40;99.90;;;;;;5082743;28;20197;-81
2023/03/01 05:09:45;;;;;;;14.10;8.87;;;-1.50;99.90;;;;;;5064392;28;20176;-81
2023/03/01 05:12:12;;;;;;;16.07;9.30;;;-1.50;99.90;;;;;;5065372;28;20200;-83
2023/03/01 05:14:38;;;;;;;14.57;9.07;;;-1.50;99.90;;;;;;5083488;28;20165;-84
2023/03/01 05:17:04;;;;;;;13.03;8.87;;;-1.60;99.90;;;;;;5065402;28;20197;-83
2023/03/01 05:19:30;;;;;;;15.67;8.90;;;-1.50;99.90;;;;;;5084198;28;20207;-82
2023/03/01 05:22:05;;;;;;;16.13;9.03;;;-1.50;99.90;;;;;;5066741;28;20250;-83
2023/03/01 05:24:33;;;;;;;14.27;9.17;;;-1.50;99.90;;;;;;5067480;28;20172;-81
2023/03/01 05:27:00;;;;;;;18.27;9.90;;;-1.50;99.90;;;;;;5067271;28;20204;-82
2023/03/01 05:29:26;;;;;;;15.30;9.80;;;-1.50;99.90;;;;;;5086235;28;20202;-81
2023/03/01 05:31:54;;;;;;;12.93;8.90;;;-1.50;99.90;;;;;;5085840;28;20197;-84
2023/03/01 05:34:27;;;;;;;15.67;9.27;;;-1.50;99.90;;;;;;5068191;28;20275;-81
2023/03/01 05:36:53;;;;;;;16.37;9.93;;;-1.50;99.90;;;;;;5069298;28;20199;-81
2023/03/01 05:39:24;;;;;;;16.10;9.80;;;-1.60;99.90;;;;;;5088075;28;20180;-84
2023/03/01 05:41:58;;;;;;;15.57;9.30;;;-1.50;99.90;;;;;;5087915;28;20180;-82
2023/03/01 05:44:25;;;;;;;13.83;8.73;;;-1.50;99.90;;;;;;5070574;28;20191;-83
2023/03/01 05:46:51;;;;;;;15.07;9.77;;;-1.50;99.90;;;;;;5089110;28;20234;-82
2023/03/01 05:49:18;;;;;;;18.00;10.13;;;-1.70;99.90;;;;;;5071748;28;20176;-84
2023/03/01 05:51:48;;;;;;;17.47;9.57;;;-1.80;99.90;;;;;;5074185;28;20273;-85
2023/03/01 05:54:14;;;;;;;11.37;6.47;;;-1.80;99.90;;;;;;5062272;28;20177;-82
2023/03/01 05:56:40;;;;;;;18.37;10.40;;;-1.70;99.90;;;;;;5055832;28;20192;-83
2023/03/01 05:59:06;;;;;;;15.57;9.77;;;-1.50;99.90;;;;;;5072354;28;20165;-81
2023/03/01 06:01:32;;;;;;;16.47;9.77;;;-1.50;99.90;;;;;;5072275;28;20172;-82
2023/03/01 06:03:58;;;;;;;15.33;9.77;;;-1.70;99.90;;;;;;5071331;28;20226;-81
2023/03/01 06:06:25;;;;;;;15.03;9.20;;;-1.60;99.90;;;;;;5071265;28;20200;-82
2023/03/01 06:08:51;;;;;;;13.37;8.40;;;-1.60;99.90;;;;;;5071763;28;20177;-80
2023/03/01 06:11:17;;;;;;;14.37;9.13;;;-1.40;99.90;;;;;;5072926;28;20221;-80
2023/03/01 06:13:43;;;;;;;16.80;10.10;;;-1.50;99.90;;;;;;5072028;28;20222;-80
2023/03/01 06:16:10;;;;;;;15.40;9.27;;;-1.70;99.90;;;;;;5073158;28;20200;-80
2023/03/01 06:18:36;;;;;;;15.20;9.17;;;-1.70;99.90;;;;;;5071943;28;20176;-80
2023/03/01 06:21:02;;;;;;;16.77;10.37;;;-1.60;99.90;;;;;;5071611;28;20222;-81
2023/03/01 06:23:28;;;;;;;17.47;10.23;;;-1.70;99.90;;;;;;5071859;28;20615;-81
2023/03/01 06:25:54;;;;;;;17.97;10.20;;;-1.70;99.90;;;;;;5072283;28;20224;-79
2023/03/01 06:28:19;;;;;;;17.47;10.57;;;-1.70;99.90;;;;;;5071637;28;20181;-80
2023/03/01 06:30:45;;;;;;;20.03;10.33;;;-1.80;99.90;;;;;;5072740;28;20181;-80
2023/03/01 06:33:11;;;;;;;16.43;10.23;;;-1.80;99.90;;;;;;5072388;28;20192;-86
2023/03/01 06:35:37;;;;;;;18.67;10.57;;;-1.80;99.90;;;;;;5070541;28;20235;-88
2023/03/01 06:38:03;;;;;;;19.93;11.47;;;-1.80;99.90;;;;;;5070631;28;20636;-88
2023/03/01 06:40:31;;;;;;;19.40;11.23;;;-1.70;99.90;;;;;;5072364;28;20276;-86
2023/03/01 06:42:57;;;;;;;19.60;11.27;;;-1.80;99.90;;;;;;5071072;28;20169;-88
2023/03/01 06:45:23;;;;;;;19.77;10.73;;;-1.80;99.90;;;;;;5073652;28;20220;-85
2023/03/01 06:47:48;;;;;;;19.63;11.37;;;-1.80;99.90;;;;;;5075187;28;20678;-83
2023/03/01 06:50:15;;;;;;;20.60;11.93;;;-1.80;99.90;;;;;;5074959;28;20264;-80
2023/03/01 06:52:41;;;;;;;19.03;11.00;;;-1.80;99.90;;;;;;5075280;28;20206;-82
2023/03/01 06:55:07;;;;;;;18.47;10.37;;;-1.80;99.90;;;;;;5077366;28;20319;-79
2023/03/01 06:57:32;;;;;;;17.30;10.23;;;-1.80;99.90;;;;;;5075302;28;20331;-79
2023/03/01 06:59:58;;;;;;;16.90;10.40;;;-1.70;99.90;;;;;;5075053;28;20189;-80
2023/03/01 07:02:24;;;;;;;16.53;10.20;;;-1.70;99.90;;;;;;5075111;28;20187;-80
2023/03/01 07:04:52;;;;;;;17.17;10.37;;;-1.70;99.90;;;;;;5076473;28;20168;-80
2023/03/01 07:07:18;;;;;;;16.33;10.13;;;-1.70;99.90;;;;;;5077061;28;20178;-83
2023/03/01 07:09:45;;;;;;;17.97;10.83;;;-1.60;99.90;;;;;;5074463;28;20184;-85
2023/03/01 07:12:11;;;;;;;17.63;10.53;;;-1.50;99.90;;;;;;5074901;28;20288;-82
2023/03/01 07:14:36;;;;;;;18.17;10.83;;;-1.40;99.90;;;;;;5074821;28;20260;-82
2023/03/01 07:17:02;;;;;;;19.50;10.80;;;-1.40;99.90;;;;;;5075106;28;20198;-81
2023/03/01 07:19:28;;;;;;;17.13;10.40;;;-1.50;99.90;;;;;;5075896;28;20176;-81
2023/03/01 07:21:55;;;;;;;17.40;10.03;;;-1.40;99.90;;;;;;5074603;28;20268;-81
2023/03/01 07:24:21;;;;;;;15.57;10.00;;;-1.40;99.90;;;;;;5074344;28;20177;-82
2023/03/01 07:26:51;;;;;;;18.30;10.27;;;-1.40;99.90;;;;;;5075418;28;20309;-81
2023/03/01 07:29:17;;;;;;;15.57;9.93;;;-1.40;99.90;;;;;;5074491;28;20627;-81
2023/03/01 07:31:43;;;;;;;16.77;9.93;;;-1.40;99.90;;;;;;5074563;28;20292;-81
2023/03/01 07:34:10;;;;;;;18.97;11.43;;;-1.40;99.90;;;;;;5075695;28;20198;-84
2023/03/01 07:36:36;;;;;;;19.90;11.93;;;-1.40;99.90;;;;;;5074102;28;20221;-80
2023/03/01 07:39:02;;;;;;;18.57;11.03;;;-1.40;99.90;;;;;;5074200;28;20223;-82
2023/03/01 07:41:29;;;;;;;18.20;10.77;;;-1.40;99.90;;;;;;5076617;28;20188;-80
2023/03/01 07:43:54;;;;;;;18.87;10.93;;;-1.30;99.90;;;;;;5072570;28;20200;-79
2023/03/01 07:46:20;;;;;;;19.03;10.30;;;-1.30;99.90;;;;;;5068327;28;20216;-82
2023/03/01 07:48:46;;;;;;;20.20;11.57;;;-1.20;99.90;;;;;;5074375;28;20256;-82
2023/03/01 07:51:12;;;;;;;17.53;10.60;;;-1.20;99.90;;;;;;5056771;28;20204;-87
2023/03/01 07:53:38;;;;;;;17.10;10.60;;;-1.10;99.90;;;;;;5071698;28;20174;-84
2023/03/01 07:56:12;;;;;;;19.67;11.23;;;-1.00;99.90;;;;;;5074886;28;20199;-81
2023/03/01 07:58:40;;;;;;;18.37;11.23;;;-1.00;99.90;;;;;;5057877;28;20180;-81
2023/03/01 08:01:07;;;;;;;19.93;11.50;;;-0.90;99.90;;;;;;5074827;28;20177;-82
2023/03/01 08:03:33;;;;;;;18.30;10.90;;;-0.80;99.90;;;;;;5079882;28;20183;-81
2023/03/01 08:06:00;;;;;;;18.10;10.20;;;-0.70;99.90;;;;;;5075573;28;20259;-79
2023/03/01 08:08:26;;;;;;;18.57;10.70;;;-0.70;99.90;;;;;;5076221;28;20204;-83
2023/03/01 08:10:52;;;;;;;15.53;10.17;;;-0.60;99.90;;;;;;5070537;28;20207;-82
2023/03/01 08:13:22;;;;;;;19.73;11.23;;;-0.50;99.90;;;;;;5060568;28;20181;-84
2023/03/01 08:15:48;;;;;;;15.40;10.13;;;-0.40;99.90;;;;;;5057273;28;20291;-84
2023/03/01 08:18:14;;;;;;;17.07;9.67;;;-0.30;99.90;;;;;;5084252;28;20185;-85
2023/03/01 08:20:40;;;;;;;18.00;10.17;;;-0.20;99.90;;;;;;5083614;28;20200;-82
2023/03/01 08:23:06;;;;;;;15.87;10.17;;;-0.10;99.90;;;;;;5084006;28;20180;-82
2023/03/01 08:25:31;;;;;;;15.90;10.47;;;0.10;99.90;;;;;;5083623;28;20193;-84
2023/03/01 08:27:57;;;;;;;15.73;9.77;;;0.20;99.90;;;;;;5083970;28;20264;-83
2023/03/01 08:30:23;;;;;;;16.83;10.00;;;0.30;99.90;;;;;;5075696;28;20204;-82
2023/03/01 08:32:49;;;;;;;17.83;9.90;;;0.30;99.90;;;;;;5063874;28;20199;-82
2023/03/01 08:35:15;;;;;;;15.33;10.00;;;0.50;99.90;;;;;;5069932;28;20192;-83
2023/03/01 08:37:41;;;;;;;14.87;9.90;;;0.60;99.90;;;;;;5089721;28;20183;-83
2023/03/01 08:40:07;;;;;;;15.20;9.23;;;0.80;99.90;;;;;;5089905;28;20191;-85
2023/03/01 08:42:33;;;;;;;16.03;9.60;;;0.90;99.90;;;;;;5074129;28;20180;-83
2023/03/01 08:47:34;;;;;;;15.40;9.53;;;1.20;99.90;;;;;;5060754;28;20199;-84
2023/03/01 08:50:00;;;;;;;13.77;9.23;;;1.30;99.90;;;;;;5073650;28;20191;-80
2023/03/01 08:52:26;;;;;;;14.67;9.83;;;1.40;99.90;;;;;;5071522;28;20204;-83
2023/03/01 08:54:52;;;;;;;15.70;9.37;;;1.50;99.90;;;;;;5053139;28;20168;-82
2023/03/01 08:57:18;;;;;;;16.17;9.77;;;1.60;99.90;;;;;;5052341;28;20215;-82
2023/03/01 08:59:43;;;;;;;15.33;9.80;;;1.70;99.90;;;;;;5053289;28;20215;-84
2023/03/01 09:02:14;;;;;;;14.00;9.30;;;1.80;99.90;;;;;;5051902;28;20177;-81
2023/03/01 09:04:40;;;;;;;12.87;8.77;;;1.90;99.90;;;;;;5053383;28;20183;-84
2023/03/01 09:07:06;;;;;;;13.40;9.00;;;2.00;99.90;;;;;;5052911;28;20197;-85
2023/03/01 09:09:32;;;;;;;12.90;8.37;;;2.10;99.90;;;;;;5051585;28;20187;-85
2023/03/01 09:11:57;;;;;;;13.27;9.10;;;2.40;99.90;;;;;;5051701;28;20193;-84
2023/03/01 09:14:23;;;;;;;13.00;9.13;;;2.40;99.90;;;;;;5053156;28;20173;-85
2023/03/01 09:16:49;;;;;;;14.83;8.83;;;2.60;99.90;;;;;;5051587;28;20217;-86
2023/03/01 09:19:15;;;;;;;15.00;9.17;;;2.70;99.90;;;;;;5052985;28;20180;-86
2023/03/01 09:21:52;;;;;;;13.67;8.53;;;2.80;99.90;;;;;;5051555;28;20737;-85
2023/03/01 09:24:20;;;;;;;12.17;8.17;;;2.70;99.90;;;;;;5052258;28;20199;-84
2023/03/01 09:26:46;;;;;;;12.30;7.93;;;2.80;99.90;;;;;;5051732;28;20193;-87
2023/03/01 09:29:12;;;;;;;12.97;8.27;;;2.90;99.90;;;;;;5051495;28;20169;-84
2023/03/01 09:31:38;;;;;;;11.57;7.70;;;3.00;99.90;;;;;;5051125;28;20201;-86
2023/03/01 09:34:04;;;;;;;12.27;7.83;;;3.20;99.90;;;;;;5052384;28;20173;-85
2023/03/01 09:36:30;;;;;;;11.77;7.50;;;3.30;99.90;;;;;;5053404;28;20206;-83
2023/03/01 09:38:56;;;;;;;13.30;8.40;;;3.40;99.50;;;;;;5053065;28;20280;-86
2023/03/01 09:41:43;;;;;;;11.87;8.10;;;3.60;97.60;;;;;;5052709;28;20257;-83
2023/03/01 09:44:31;;;;;;;11.67;7.83;;;3.70;96.60;;;;;;5051314;28;20174;-84
2023/03/01 09:46:57;;;;;;;10.63;7.80;;;3.50;95.60;;;;;;5066913;28;20221;-84
2023/03/01 09:49:26;;;;;;;13.97;8.17;;;3.60;97.40;;;;;;5054775;28;20182;-84
2023/03/01 09:51:56;;;;;;;12.53;8.73;;;3.60;98.00;;;;;;5054412;28;20202;-86
2023/03/01 09:54:22;;;;;;;14.00;9.33;;;3.90;99.30;;;;;;5054320;28;20174;-85
2023/03/01 09:57:11;;;;;;;14.57;9.97;;;4.00;97.30;;;;;;5072565;28;20200;-83
2023/03/01 10:00:04;;;;;;;13.03;9.00;;;4.10;99.40;;;;;;5054235;28;20197;-83
2023/03/01 10:02:44;;;;;;;14.20;9.23;;;4.40;98.00;;;;;;5054498;28;20182;-85
2023/03/01 10:05:24;;;;;;;14.03;8.73;;;4.40;95.50;;;;;;5072633;28;20257;-83
2023/03/01 10:08:05;;;;;;;12.63;8.73;;;4.30;93.90;;;;;;5072529;28;20167;-83
2023/03/01 10:10:44;;;;;;;12.27;8.17;;;4.50;96.00;;;;;;5054486;28;20193;-82
2023/03/01 10:13:45;;;;;;;11.63;8.43;;;4.70;95.50;;;;;;5072352;28;20186;-82
2023/03/01 10:16:14;;;;;;;13.43;8.80;;;4.80;92.00;;;;;;5054617;28;20196;-82
2023/03/01 10:18:40;;;;;;;13.37;9.03;;;4.90;91.80;;;;;;5054545;28;20172;-82
2023/03/01 10:21:19;;;;;;;13.47;8.70;;;5.00;92.20;;;;;;5054291;28;20197;-81
2023/03/01 10:23:46;;;;;;;12.93;8.60;;;5.20;89.30;;;;;;5072272;28;20176;-81
2023/03/01 10:26:20;;;;;;;13.13;8.27;;;5.20;83.40;;;;;;5054139;28;20612;-82
2023/03/01 10:28:51;;;;;;;11.90;7.93;;;5.20;84.40;;;;;;5072113;28;20556;-82
2023/03/01 10:31:27;;;;;;;12.20;8.53;;;5.50;86.90;;;;;;5072392;28;20232;-81
2023/03/01 10:33:56;;;;;;;12.53;8.80;;;5.70;84.10;;;;;;5072354;28;20169;-81
2023/03/01 10:36:23;;;;;;;12.47;8.67;;;5.50;87.50;;;;;;5054324;28;20284;-82
2023/03/01 10:38:54;;;;;;;14.27;9.17;;;5.70;89.40;;;;;;5072155;28;20169;-82
2023/03/01 10:41:23;;;;;;;12.30;9.07;;;6.00;87.20;;;;;;5072736;28;20180;-82
2023/03/01 10:44:00;;;;;;;12.90;8.03;;;6.20;87.10;;;;;;5072970;28;20178;-82
2023/03/01 10:46:36;;;;;;;13.87;8.90;;;6.30;77.70;;;;;;5055192;28;20219;-82
2023/03/01 10:49:22;;;;;;;13.10;9.13;;;6.20;82.20;;;;;;5055763;28;20181;-83
2023/03/01 10:51:51;;;;;;;11.20;8.27;;;6.10;79.90;;;;;;5071864;28;20212;-83
2023/03/01 10:54:28;;;;;;;13.03;9.07;;;6.00;81.00;;;;;;5071976;28;20166;-83
2023/03/01 10:56:58;;;;;;;10.60;8.10;;;6.20;80.90;;;;;;5053681;28;20193;-84
2023/03/01 10:59:31;;;;;;;12.27;8.77;;;6.50;83.20;;;;;;5053969;28;20268;-88
2023/03/01 11:02:09;;;;;;;12.57;8.40;;;6.40;80.30;;;;;;5072184;28;20264;-83
2023/03/01 11:04:35;;;;;;;12.40;8.83;;;6.50;74.50;;;;;;5072159;28;20181;-83
2023/03/01 11:07:02;;;;;;;12.10;9.17;;;6.40;80.10;;;;;;5054077;28;20205;-83
2023/03/01 11:09:37;;;;;;;13.90;9.00;;;6.60;74.20;;;;;;5053837;28;20181;-84
2023/03/01 11:12:05;;;;;;;15.07;9.07;;;6.80;74.00;;;;;;5072050;28;20203;-83
2023/03/01 11:14:37;;;;;;;13.27;9.13;;;7.10;75.30;;;;;;5053844;28;20304;-83
2023/03/01 11:17:13;;;;;;;12.27;8.60;;;7.30;72.60;;;;;;5071605;28;20190;-83
2023/03/01 11:19:39;;;;;;;12.80;8.83;;;7.30;74.30;;;;;;5071584;28;20181;-83
2023/03/01 11:22:13;;;;;;;12.10;9.17;;;7.50;64.70;;;;;;5053530;28;20174;-83
2023/03/01 11:24:49;;;;;;;10.80;8.27;;;7.50;70.90;;;;;;5071788;28;20190;-84
2023/03/01 11:27:33;;;;;;;12.80;8.60;;;7.50;62.60;;;;;;5053444;28;20193;-83
2023/03/01 11:30:27;;;;;;;12.43;8.73;;;7.60;61.00;;;;;;5071340;28;20176;-83
2023/03/01 11:33:16;;;;;;;12.67;8.50;;;7.70;56.80;;;;;;5073749;28;20216;-84
2023/03/01 11:35:55;;;;;;;11.73;8.33;;;7.70;58.40;;;;;;5075032;28;20196;-83
2023/03/01 11:38:24;;;;;;;12.73;8.50;;;7.80;56.30;;;;;;5075302;28;20156;-85
2023/03/01 11:41:07;;;;;;;13.53;9.40;;;8.10;53.90;;;;;;5075437;28;20183;-83
2023/03/01 11:43:33;;;;;;;10.83;8.50;;;8.00;51.60;;;;;;5075305;28;20157;-83
2023/03/01 11:46:17;;;;;;;11.93;8.57;;;7.80;52.10;;;;;;5057144;28;20231;-81
2023/03/01 11:49:01;;;;;;;10.43;8.40;;;7.90;54.10;;;;;;5057559;28;20172;-83
2023/03/01 11:51:54;;;;;;;11.40;9.27;;;8.00;56.70;;;;;;5075013;28;20191;-81
2023/03/01 11:54:31;;;;;;;11.47;8.20;;;8.00;49.90;;;;;;5057582;28;20175;-82
2023/03/01 11:57:09;;;;;;;10.70;7.77;;;7.90;54.50;;;;;;5075760;28;20573;-85
2023/03/01 11:59:59;;;;;;;12.70;8.80;;;8.10;54.60;;;;;;5057416;28;20161;-85
2023/03/01 12:02:59;;;;;;;12.07;8.90;;;8.30;54.50;;;;;;5074795;28;20189;-85
2023/03/01 12:06:03;;;;;;;15.30;9.13;;;8.10;54.00;;;;;;5075099;28;20252;-85
2023/03/01 12:08:35;;;;;;;11.10;8.57;;;8.00;54.20;;;;;;5061529;28;20189;-85
2023/03/01 12:11:09;;;;;;;10.73;8.57;;;8.40;60.50;;;;;;5074943;28;20516;-86
2023/03/01 12:13:53;;;;;;;12.53;9.07;;;8.80;54.30;;;;;;5074974;28;20172;-84
2023/03/01 12:16:31;;;;;;;14.47;9.53;;;8.90;49.50;;;;;;5073274;28;20189;-84
2023/03/01 12:19:18;;;;;;;13.93;9.27;;;8.80;49.30;;;;;;5074828;28;20169;-84
2023/03/01 12:21:46;;;;;;;12.73;9.20;;;8.80;53.10;;;;;;5073410;28;20173;-85
2023/03/01 12:24:39;;;;;;;13.13;9.00;;;9.00;46.60;;;;;;5073500;28;20179;-84
2023/03/01 12:27:56;;;;;;;12.13;8.33;;;8.70;46.60;;;;;;5073299;28;20196;-84
2023/03/01 12:30:43;;;;;;;11.07;8.63;;;9.00;45.70;;;;;;5039633;28;20666;-84
2023/03/01 12:33:30;;;;;;;11.30;8.10;;;8.70;46.70;;;;;;5074334;28;20268;-85
2023/03/01 12:36:19;;;;;;;13.87;8.73;;;9.00;41.70;;;;;;5056470;28;20276;-84
2023/03/01 12:38:59;;;;;;;12.20;8.77;;;9.00;41.80;;;;;;5074399;28;20620;-83
2023/03/01 12:41:46;;;;;;;12.10;8.83;;;9.10;37.60;;;;;;5073789;28;20607;-83
2023/03/01 12:44:34;;;;;;;12.20;9.00;;;8.90;42.10;;;;;;5056494;28;20158;-85
2023/03/01 12:47:12;;;;;;;10.57;7.93;;;9.00;38.60;;;;;;5056190;28;20201;-84
2023/03/01 12:49:47;;;;;;;10.57;8.13;;;8.90;38.90;;;;;;5074688;28;20170;-84
2023/03/01 12:52:22;;;;;;;12.80;8.73;;;9.40;39.50;;;;;;5056216;28;20196;-83
2023/03/01 12:54:50;;;;;;;11.27;8.33;;;9.50;33.20;;;;;;5074099;28;20182;-82